sensor_id;sensor_type;location;lat;lon;timestamp;pressure;altitude;pressure_sealevel;temperature;humidity
42335;BME280;27986;42.700;24.178;2022-11-15T00:01:33;94466.22;;;3.80;89.15
42335;BME280;27986;42.700;24.178;2022-11-15T00:03:59;94455.47;;;3.97;88.68
42335;BME280;27986;42.700;24.178;2022-11-15T00:06:24;94445.16;;;3.70;89.26
42335;BME280;27986;42.700;24.178;2022-11-15T00:08:50;94457.34;;;3.90;88.88
42335;BME280;27986;42.700;24.178;2022-11-15T00:11:15;94455.94;;;4.04;87.86
42335;BME280;27986;42.700;24.178;2022-11-15T00:13:41;94448.47;;;4.01;87.13
42335;BME280;27986;42.700;24.178;2022-11-15T00:16:06;94418.06;;;3.61;86.19
42335;BME280;27986;42.700;24.178;2022-11-15T00:18:34;94440.38;;;3.61;88.48
42335;BME280;27986;42.700;24.178;2022-11-15T00:21:04;94439.13;;;3.71;89.28
42335;BME280;27986;42.700;24.178;2022-11-15T00:23:32;94426.75;;;3.63;89.85
42335;BME280;27986;42.700;24.178;2022-11-15T00:25:58;94432.34;;;4.05;88.77
42335;BME280;27986;42.700;24.178;2022-11-15T00:28:24;94433.75;;;4.34;87.53
42335;BME280;27986;42.700;24.178;2022-11-15T00:30:50;94424.28;;;4.40;nan
42335;BME280;27986;42.700;24.178;2022-11-15T00:33:15;94437.13;;;4.47;86.52
42335;BME280;27986;42.700;24.178;2022-11-15T00:35:41;94415.41;;;4.42;85.74
42335;BME280;27986;42.700;24.178;2022-11-15T00:38:06;94420.66;;;4.49;84.17
42335;BME280;27986;42.700;24.178;2022-11-15T00:40:32;94413.88;;;4.41;83.34
42335;BME280;27986;42.700;24.178;2022-11-15T00:42:58;94421.16;;;4.14;87.43
42335;BME280;27986;42.700;24.178;2022-11-15T00:45:24;94408.06;;;3.97;90.24
42335;BME280;27986;42.700;24.178;2022-11-15T00:47:50;94390.16;;;3.79;91.45
42335;BME280;27986;42.700;24.178;2022-11-15T00:50:16;94426.06;;;4.19;91.42
42335;BME280;27986;42.700;24.178;2022-11-15T00:52:42;94420.44;;;4.29;90.53
42335;BME280;27986;42.700;24.178;2022-11-15T00:55:16;94416.28;;;4.24;90.16
42335;BME280;27986;42.700;24.178;2022-11-15T00:57:42;94383.38;;;3.95;89.40
42335;BME280;27986;42.700;24.178;2022-11-15T01:00:08;94405.25;;;4.30;88.82
42335;BME280;27986;42.700;24.178;2022-11-15T07:32:34;94310.97;;;5.76;93.08
42335;BME280;27986;42.700;24.178;2022-11-15T07:35:00;94309.56;;;5.86;92.58
42335;BME280;27986;42.700;24.178;2022-11-15T07:37:25;94315.28;;;5.77;93.12
42335;BME280;27986;42.700;24.178;2022-11-15T07:39:50;94302.19;;;5.68;92.72
42335;BME280;27986;42.700;24.178;2022-11-15T07:42:16;94299.22;;;5.42;94.54
42335;BME280;27986;42.700;24.178;2022-11-15T07:45:00;94312.59;;;5.82;94.22
42335;BME280;27986;42.700;24.178;2022-11-15T07:47:28;94311.03;;;5.96;93.68
42335;BME280;27986;42.700;24.178;2022-11-15T07:49:53;94319.84;;;6.24;93.64
42335;BME280;27986;42.700;24.178;2022-11-15T07:52:19;94303.38;;;6.11;92.94
42335;BME280;27986;42.700;24.178;2022-11-15T07:54:45;94286.91;;;5.84;94.28
42335;BME280;27986;42.700;24.178;2022-11-15T07:57:10;94319.13;;;6.29;93.23
42335;BME280;27986;42.700;24.178;2022-11-15T07:59:36;94323.09;;;6.58;92.17
42335;BME280;27986;42.700;24.178;2022-11-15T08:02:02;94319.97;;;6.35;91.39
42335;BME280;27986;42.700;24.178;2022-11-15T08:04:27;94291.34;;;5.41;96.16
42335;BME280;27986;42.700;24.178;2022-11-15T08:06:53;94299.72;;;5.11;99.67
42335;BME280;27986;42.700;24.178;2022-11-15T08:09:18;94304.91;;;5.18;100.00
42335;BME280;27986;42.700;24.178;2022-11-15T08:11:44;94294.31;;;5.07;100.00
42335;BME280;27986;42.700;24.178;2022-11-15T08:14:09;94307.91;;;5.15;100.00
42335;BME280;27986;42.700;24.178;2022-11-15T08:16:35;94321.91;;;5.15;100.00
42335;BME280;27986;42.700;24.178;2022-11-15T08:19:00;94313.28;;;5.03;100.00
42335;BME280;27986;42.700;24.178;2022-11-15T08:21:25;94300.94;;;5.54;100.00
42335;BME280;27986;42.700;24.178;2022-11-15T08:23:51;94314.13;;;5.83;100.00
42335;BME280;27986;42.700;24.178;2022-11-15T08:26:17;94300.13;;;5.83;99.71
42335;BME280;27986;42.700;24.178;2022-11-15T08:28:42;94306.25;;;5.67;99.92
42335;BME280;27986;42.700;24.178;2022-11-15T08:31:16;94314.91;;;5.84;99.31
42335;BME280;27986;42.700;24.178;2022-11-15T08:33:43;94314.13;;;5.98;97.47
42335;BME280;27986;42.700;24.178;2022-11-15T08:36:13;94312.78;;;5.79;98.22
42335;BME280;27986;42.700;24.178;2022-11-15T08:38:40;94318.50;;;5.55;100.00
42335;BME280;27986;42.700;24.178;2022-11-15T08:41:05;94304.94;;;5.33;100.00
42335;BME280;27986;42.700;24.178;2022-11-15T08:43:31;94310.63;;;5.39;100.00
42335;BME280;27986;42.700;24.178;2022-11-15T08:45:58;94306.47;;;5.49;100.00
42335;BME280;27986;42.700;24.178;2022-11-15T08:48:23;94297.03;;;5.31;100.00
42335;BME280;27986;42.700;24.178;2022-11-15T08:50:51;94291.44;;;5.31;100.00
42335;BME280;27986;42.700;24.178;2022-11-15T08:53:18;94275.91;;;5.01;100.00
42335;BME280;27986;42.700;24.178;2022-11-15T08:55:43;94279.09;;;5.23;100.00
42335;BME280;27986;42.700;24.178;2022-11-15T08:58:09;94270.94;;;5.55;100.00
42335;BME280;27986;42.700;24.178;2022-11-15T09:00:34;94282.88;;;5.70;100.00
42335;BME280;27986;42.700;24.178;2022-11-15T09:03:03;94273.06;;;6.10;100.00
42335;BME280;27986;42.700;24.178;2022-11-15T09:05:29;94267.19;;;6.08;98.75
42335;BME280;27986;42.700;24.178;2022-11-15T09:07:54;94272.06;;;6.13;99.26
42335;BME280;27986;42.700;24.178;2022-11-15T09:10:20;94256.84;;;6.34;97.04
42335;BME280;27986;42.700;24.178;2022-11-15T09:12:46;94264.09;;;6.46;96.05
42335;BME280;27986;42.700;24.178;2022-11-15T09:15:14;94277.78;;;6.85;96.18
42335;BME280;27986;42.700;24.178;2022-11-15T09:17:40;94263.28;;;7.13;93.62
42335;BME280;27986;42.700;24.178;2022-11-15T09:20:06;94255.88;;;6.84;92.95
42335;BME280;27986;42.700;24.178;2022-11-15T09:22:31;94241.97;;;6.95;92.24
42335;BME280;27986;42.700;24.178;2022-11-15T09:24:57;94234.72;;;7.09;91.11
42335;BME280;27986;42.700;24.178;2022-11-15T09:27:22;94237.66;;;7.25;90.67
42335;BME280;27986;42.700;24.178;2022-11-15T09:29:48;94228.06;;;7.38;89.92
42335;BME280;27986;42.700;24.178;2022-11-15T09:32:13;94217.03;;;7.60;88.61
42335;BME280;27986;42.700;24.178;2022-11-15T09:34:39;94235.56;;;7.89;86.23
42335;BME280;27986;42.700;24.178;2022-11-15T09:37:04;94231.38;;;7.73;86.09
42335;BME280;27986;42.700;24.178;2022-11-15T09:39:30;94231.63;;;7.07;88.94
42335;BME280;27986;42.700;24.178;2022-11-15T09:47:36;94235.16;;;7.01;89.57
42335;BME280;27986;42.700;24.178;2022-11-15T09:50:11;94238.28;;;6.83;91.65
42335;BME280;27986;42.700;24.178;2022-11-15T09:52:41;94236.41;;;7.00;91.27
42335;BME280;27986;42.700;24.178;2022-11-15T09:55:10;94211.28;;;6.86;91.46
42335;BME280;27986;42.700;24.178;2022-11-15T10:00:35;94227.94;;;6.69;93.72
42335;BME280;27986;42.700;24.178;2022-11-15T10:03:36;94235.53;;;6.42;96.12
42335;BME280;27986;42.700;24.178;2022-11-15T10:06:04;94215.72;;;6.46;96.75
42335;BME280;27986;42.700;24.178;2022-11-15T10:11:08;94202.81;;;6.08;99.63
42335;BME280;27986;42.700;24.178;2022-11-15T10:13:37;94228.59;;;6.58;100.00
42335;BME280;27986;42.700;24.178;2022-11-15T10:22:28;94203.28;;;6.73;98.07
42335;BME280;27986;42.700;24.178;2022-11-15T10:27:29;94202.06;;;6.80;98.15
42335;BME280;27986;42.700;24.178;2022-11-15T10:29:54;94181.34;;;6.45;98.41
42335;BME280;27986;42.700;24.178;2022-11-15T10:32:20;94189.81;;;6.51;99.30
42335;BME280;27986;42.700;24.178;2022-11-15T10:34:49;94178.38;;;6.08;100.00
42335;BME280;27986;42.700;24.178;2022-11-15T10:37:28;94175.25;;;6.73;100.00
42335;BME280;27986;42.700;24.178;2022-11-15T10:40:24;94163.97;;;6.93;99.30
42335;BME280;27986;42.700;24.178;2022-11-15T10:45:36;94171.75;;;7.10;94.96
42335;BME280;27986;42.700;24.178;2022-11-15T10:50:39;94138.50;;;6.97;94.88
42335;BME280;27986;42.700;24.178;2022-11-15T10:53:17;94142.25;;;7.20;94.00
42335;BME280;27986;42.700;24.178;2022-11-15T10:55:52;94157.38;;;7.28;93.38
42335;BME280;27986;42.700;24.178;2022-11-15T10:58:38;94151.94;;;7.19;94.74
42335;BME280;27986;42.700;24.178;2022-11-15T11:01:11;94151.13;;;7.13;95.35
42335;BME280;27986;42.700;24.178;2022-11-15T11:03:39;94136.56;;;7.09;94.71
42335;BME280;27986;42.700;24.178;2022-11-15T11:06:16;94122.28;;;7.07;93.54
42335;BME280;27986;42.700;24.178;2022-11-15T11:08:59;94138.00;;;7.30;93.99
42335;BME280;27986;42.700;24.178;2022-11-15T11:11:44;94127.81;;;7.32;94.82
42335;BME280;27986;42.700;24.178;2022-11-15T11:29:51;94098.44;;;7.71;93.04
42335;BME280;27986;42.700;24.178;2022-11-15T11:35:11;94095.03;;;7.50;92.96
42335;BME280;27986;42.700;24.178;2022-11-15T11:40:40;94086.53;;;7.39;93.91
42335;BME280;27986;42.700;24.178;2022-11-15T11:48:44;94064.59;;;7.31;95.26
42335;BME280;27986;42.700;24.178;2022-11-15T11:51:24;94062.97;;;7.19;99.70
42335;BME280;27986;42.700;24.178;2022-11-15T11:54:03;94049.13;;;7.53;98.44
42335;BME280;27986;42.700;24.178;2022-11-15T11:56:36;94047.94;;;7.71;95.63
42335;BME280;27986;42.700;24.178;2022-11-15T12:01:43;94043.38;;;7.84;95.21
42335;BME280;27986;42.700;24.178;2022-11-15T12:09:47;94038.06;;;7.98;91.33
42335;BME280;27986;42.700;24.178;2022-11-15T12:12:27;94030.84;;;7.74;93.33
42335;BME280;27986;42.700;24.178;2022-11-15T12:14:57;94024.41;;;7.62;95.52
42335;BME280;27986;42.700;24.178;2022-11-15T12:17:28;94021.22;;;7.92;95.42
42335;BME280;27986;42.700;24.178;2022-11-15T12:20:03;94016.38;;;8.15;93.43
42335;BME280;27986;42.700;24.178;2022-11-15T12:22:44;94013.06;;;8.00;93.53
42335;BME280;27986;42.700;24.178;2022-11-15T12:25:19;94017.41;;;8.12;93.58
42335;BME280;27986;42.700;24.178;2022-11-15T12:27:53;93995.97;;;8.03;92.85
42335;BME280;27986;42.700;24.178;2022-11-15T12:30:21;94005.88;;;7.99;93.73
42335;BME280;27986;42.700;24.178;2022-11-15T12:35:39;94017.69;;;8.08;92.56
42335;BME280;27986;42.700;24.178;2022-11-15T12:38:11;93991.78;;;7.71;95.24
42335;BME280;27986;42.700;24.178;2022-11-15T12:40:39;94021.06;;;7.53;97.92
42335;BME280;27986;42.700;24.178;2022-11-15T12:43:40;94022.41;;;7.69;98.33
42335;BME280;27986;42.700;24.178;2022-11-15T12:46:12;94015.06;;;7.82;96.65
42335;BME280;27986;42.700;24.178;2022-11-15T12:51:04;94019.56;;;7.57;97.17
42335;BME280;27986;42.700;24.178;2022-11-15T12:53:31;94012.84;;;7.32;100.00
42335;BME280;27986;42.700;24.178;2022-11-15T13:06:48;93996.56;;;7.42;97.45
42335;BME280;27986;42.700;24.178;2022-11-15T13:14:59;94005.28;;;6.64;100.00
42335;BME280;27986;42.700;24.178;2022-11-15T13:23:08;93985.22;;;7.20;100.00
42335;BME280;27986;42.700;24.178;2022-11-15T13:30:53;93984.19;;;7.17;100.00
42335;BME280;27986;42.700;24.178;2022-11-15T13:33:22;93989.25;;;7.08;100.00
42335;BME280;27986;42.700;24.178;2022-11-15T13:35:51;93976.25;;;7.10;100.00
42335;BME280;27986;42.700;24.178;2022-11-15T13:38:29;93989.34;;;7.24;100.00
42335;BME280;27986;42.700;24.178;2022-11-15T13:40:56;93978.88;;;7.25;100.00
42335;BME280;27986;42.700;24.178;2022-11-15T13:46:05;93967.22;;;7.43;100.00
42335;BME280;27986;42.700;24.178;2022-11-15T13:48:31;93954.75;;;7.55;99.93
42335;BME280;27986;42.700;24.178;2022-11-15T13:50:59;93955.47;;;7.33;99.62
42335;BME280;27986;42.700;24.178;2022-11-15T13:53:28;93971.03;;;7.46;100.00
42335;BME280;27986;42.700;24.178;2022-11-15T13:56:00;93948.31;;;7.38;99.60
42335;BME280;27986;42.700;24.178;2022-11-15T13:58:28;93956.78;;;7.55;97.67
42335;BME280;27986;42.700;24.178;2022-11-15T14:01:04;93974.09;;;7.48;98.60
42335;BME280;27986;42.700;24.178;2022-11-15T14:03:33;93971.41;;;7.76;98.58
42335;BME280;27986;42.700;24.178;2022-11-15T14:08:28;93960.38;;;7.50;98.07
42335;BME280;27986;42.700;24.178;2022-11-15T14:11:13;93977.75;;;7.59;98.33
42335;BME280;27986;42.700;24.178;2022-11-15T14:13:40;93958.84;;;7.60;98.73
42335;BME280;27986;42.700;24.178;2022-11-15T14:16:14;93943.06;;;7.79;98.30
42335;BME280;27986;42.700;24.178;2022-11-15T14:18:48;93953.03;;;7.75;96.77
42335;BME280;27986;42.700;24.178;2022-11-15T14:21:15;93946.78;;;7.31;98.36
42335;BME280;27986;42.700;24.178;2022-11-15T14:23:41;93951.84;;;7.27;100.00
42335;BME280;27986;42.700;24.178;2022-11-15T14:26:25;93951.34;;;7.23;100.00
42335;BME280;27986;42.700;24.178;2022-11-15T14:28:51;93941.19;;;7.37;100.00
42335;BME280;27986;42.700;24.178;2022-11-15T14:31:16;93950.06;;;7.24;100.00
42335;BME280;27986;42.700;24.178;2022-11-15T14:33:42;93914.06;;;7.12;100.00
42335;BME280;27986;42.700;24.178;2022-11-15T14:38:36;93934.00;;;7.25;100.00
42335;BME280;27986;42.700;24.178;2022-11-15T14:41:01;93916.22;;;7.45;100.00
42335;BME280;27986;42.700;24.178;2022-11-15T14:43:27;93942.59;;;7.86;98.10
42335;BME280;27986;42.700;24.178;2022-11-15T14:45:53;93927.28;;;7.93;96.27
42335;BME280;27986;42.700;24.178;2022-11-15T14:48:18;93924.22;;;7.74;96.60
42335;BME280;27986;42.700;24.178;2022-11-15T14:50:44;93910.94;;;7.75;96.54
42335;BME280;27986;42.700;24.178;2022-11-15T14:53:15;93938.00;;;7.95;95.97
42335;BME280;27986;42.700;24.178;2022-11-15T14:55:41;93895.31;;;7.51;96.36
42335;BME280;27986;42.700;24.178;2022-11-15T14:58:07;93941.25;;;7.59;97.98
42335;BME280;27986;42.700;24.178;2022-11-15T15:00:37;93923.34;;;7.40;98.19
42335;BME280;27986;42.700;24.178;2022-11-15T15:03:04;93943.03;;;7.57;99.60
42335;BME280;27986;42.700;24.178;2022-11-15T15:05:41;93927.09;;;7.15;100.00
42335;BME280;27986;42.700;24.178;2022-11-15T15:08:08;93959.03;;;7.34;100.00
42335;BME280;27986;42.700;24.178;2022-11-15T15:10:40;93949.66;;;7.48;100.00
42335;BME280;27986;42.700;24.178;2022-11-15T15:15:42;93952.66;;;7.39;100.00
42335;BME280;27986;42.700;24.178;2022-11-15T15:18:07;93939.16;;;7.43;99.40
42335;BME280;27986;42.700;24.178;2022-11-15T15:20:34;93934.06;;;7.47;98.26
42335;BME280;27986;42.700;24.178;2022-11-15T15:23:00;93934.88;;;7.59;99.15
42335;BME280;27986;42.700;24.178;2022-11-15T15:25:31;93937.22;;;7.88;96.70
42335;BME280;27986;42.700;24.178;2022-11-15T15:27:58;93938.00;;;8.06;95.37
42335;BME280;27986;42.700;24.178;2022-11-15T15:30:25;93931.63;;;7.94;93.89
42335;BME280;27986;42.700;24.178;2022-11-15T15:32:50;93935.44;;;7.97;93.98
42335;BME280;27986;42.700;24.178;2022-11-15T15:35:17;93947.22;;;8.01;94.57
42335;BME280;27986;42.700;24.178;2022-11-15T15:37:44;93945.41;;;8.14;93.26
42335;BME280;27986;42.700;24.178;2022-11-15T15:40:13;93952.84;;;8.29;92.54
42335;BME280;27986;42.700;24.178;2022-11-15T15:42:40;93937.00;;;8.14;92.11
42335;BME280;27986;42.700;24.178;2022-11-15T15:45:07;93947.44;;;7.86;94.16
42335;BME280;27986;42.700;24.178;2022-11-15T15:47:32;93949.38;;;7.46;97.52
42335;BME280;27986;42.700;24.178;2022-11-15T15:49:57;93936.06;;;7.30;99.67
42335;BME280;27986;42.700;24.178;2022-11-15T15:52:23;93932.97;;;7.17;100.00
42335;BME280;27986;42.700;24.178;2022-11-15T15:54:50;93936.53;;;7.23;100.00
42335;BME280;27986;42.700;24.178;2022-11-15T15:57:15;93946.56;;;7.41;100.00
42335;BME280;27986;42.700;24.178;2022-11-15T15:59:41;93911.78;;;7.10;100.00
42335;BME280;27986;42.700;24.178;2022-11-15T16:02:11;93939.88;;;7.27;100.00
42335;BME280;27986;42.700;24.178;2022-11-15T16:04:37;93924.34;;;7.31;100.00
42335;BME280;27986;42.700;24.178;2022-11-15T16:07:03;93944.50;;;7.36;100.00
42335;BME280;27986;42.700;24.178;2022-11-15T16:09:29;93944.22;;;7.28;100.00
42335;BME280;27986;42.700;24.178;2022-11-15T16:12:13;93932.69;;;7.15;100.00
42335;BME280;27986;42.700;24.178;2022-11-15T16:14:39;93928.56;;;7.04;100.00
42335;BME280;27986;42.700;24.178;2022-11-15T16:17:05;93937.09;;;6.78;100.00
42335;BME280;27986;42.700;24.178;2022-11-15T16:19:30;93939.16;;;6.84;100.00
42335;BME280;27986;42.700;24.178;2022-11-15T16:21:56;93951.44;;;6.92;100.00
42335;BME280;27986;42.700;24.178;2022-11-15T16:24:22;93929.78;;;6.92;100.00
42335;BME280;27986;42.700;24.178;2022-11-15T16:26:48;93933.34;;;6.93;100.00
42335;BME280;27986;42.700;24.178;2022-11-15T16:29:15;93930.84;;;7.00;100.00
42335;BME280;27986;42.700;24.178;2022-11-15T16:31:40;93930.25;;;6.85;100.00
42335;BME280;27986;42.700;24.178;2022-11-15T16:34:06;93930.00;;;6.89;100.00
42335;BME280;27986;42.700;24.178;2022-11-15T16:36:35;93936.72;;;7.02;100.00
42335;BME280;27986;42.700;24.178;2022-11-15T16:39:01;93915.44;;;6.79;100.00
42335;BME280;27986;42.700;24.178;2022-11-15T16:41:30;93935.69;;;7.05;100.00
42335;BME280;27986;42.700;24.178;2022-11-15T16:43:56;93932.38;;;7.01;100.00
42335;BME280;27986;42.700;24.178;2022-11-15T16:46:26;93932.94;;;7.11;100.00
42335;BME280;27986;42.700;24.178;2022-11-15T16:48:52;93934.22;;;7.16;100.00
42335;BME280;27986;42.700;24.178;2022-11-15T16:51:19;93919.72;;;7.23;100.00
42335;BME280;27986;42.700;24.178;2022-11-15T16:53:45;93935.50;;;7.15;100.00
42335;BME280;27986;42.700;24.178;2022-11-15T16:56:25;93922.97;;;7.10;100.00
42335;BME280;27986;42.700;24.178;2022-11-15T16:58:55;93918.94;;;7.17;99.46
42335;BME280;27986;42.700;24.178;2022-11-15T17:01:36;93913.56;;;7.08;99.71
42335;BME280;27986;42.700;24.178;2022-11-15T17:04:16;93934.19;;;7.10;99.70
42335;BME280;27986;42.700;24.178;2022-11-15T17:06:45;93929.66;;;7.18;99.68
42335;BME280;27986;42.700;24.178;2022-11-15T17:11:41;93890.72;;;6.77;100.00
42335;BME280;27986;42.700;24.178;2022-11-15T17:14:07;93903.75;;;6.86;100.00
42335;BME280;27986;42.700;24.178;2022-11-15T17:16:33;93911.66;;;6.82;100.00
42335;BME280;27986;42.700;24.178;2022-11-15T17:19:00;93916.78;;;6.95;100.00
42335;BME280;27986;42.700;24.178;2022-11-15T17:21:26;93918.66;;;7.09;100.00
42335;BME280;27986;42.700;24.178;2022-11-15T17:23:53;93913.03;;;7.09;100.00
42335;BME280;27986;42.700;24.178;2022-11-15T17:26:18;93920.22;;;7.21;100.00
42335;BME280;27986;42.700;24.178;2022-11-15T17:28:44;93903.38;;;7.16;99.35
42335;BME280;27986;42.700;24.178;2022-11-15T17:31:11;93899.75;;;6.98;100.00
42335;BME280;27986;42.700;24.178;2022-11-15T17:33:38;93912.53;;;7.11;100.00
42335;BME280;27986;42.700;24.178;2022-11-15T17:36:07;93899.75;;;6.98;100.00
42335;BME280;27986;42.700;24.178;2022-11-15T17:38:34;93900.31;;;7.08;100.00
42335;BME280;27986;42.700;24.178;2022-11-15T17:41:00;93904.91;;;7.17;100.00
42335;BME280;27986;42.700;24.178;2022-11-15T17:43:27;93905.06;;;6.96;100.00
42335;BME280;27986;42.700;24.178;2022-11-15T17:45:53;93890.69;;;6.66;100.00
42335;BME280;27986;42.700;24.178;2022-11-15T17:48:19;93892.72;;;6.66;100.00
42335;BME280;27986;42.700;24.178;2022-11-15T17:50:54;93900.00;;;6.52;100.00
42335;BME280;27986;42.700;24.178;2022-11-15T17:53:19;93884.63;;;6.36;100.00
42335;BME280;27986;42.700;24.178;2022-11-15T17:55:44;93851.41;;;6.12;100.00
42335;BME280;27986;42.700;24.178;2022-11-15T17:58:10;93868.50;;;5.88;100.00
42335;BME280;27986;42.700;24.178;2022-11-15T18:00:35;93897.13;;;6.04;100.00
42335;BME280;27986;42.700;24.178;2022-11-15T18:03:02;93898.50;;;5.88;100.00
42335;BME280;27986;42.700;24.178;2022-11-15T18:05:27;93859.28;;;5.51;100.00
42335;BME280;27986;42.700;24.178;2022-11-15T18:07:53;93866.50;;;5.63;100.00
42335;BME280;27986;42.700;24.178;2022-11-15T18:10:18;93861.91;;;5.60;100.00
42335;BME280;27986;42.700;24.178;2022-11-15T18:12:44;93872.22;;;5.74;100.00
42335;BME280;27986;42.700;24.178;2022-11-15T18:15:09;93883.56;;;5.91;100.00
42335;BME280;27986;42.700;24.178;2022-11-15T18:17:35;93857.47;;;5.79;100.00
42335;BME280;27986;42.700;24.178;2022-11-15T18:20:02;93874.06;;;5.83;100.00
42335;BME280;27986;42.700;24.178;2022-11-15T18:22:27;93877.63;;;5.83;100.00
42335;BME280;27986;42.700;24.178;2022-11-15T18:24:53;93871.81;;;5.61;100.00
42335;BME280;27986;42.700;24.178;2022-11-15T18:27:18;93888.50;;;5.76;100.00
42335;BME280;27986;42.700;24.178;2022-11-15T18:29:44;93866.81;;;5.71;100.00
42335;BME280;27986;42.700;24.178;2022-11-15T18:32:09;93880.38;;;5.52;100.00
42335;BME280;27986;42.700;24.178;2022-11-15T18:34:39;93872.72;;;5.47;100.00
42335;BME280;27986;42.700;24.178;2022-11-15T18:37:05;93862.31;;;5.21;100.00
42335;BME280;27986;42.700;24.178;2022-11-15T18:39:31;93841.53;;;5.02;100.00
42335;BME280;27986;42.700;24.178;2022-11-15T18:41:56;93864.47;;;5.12;100.00
42335;BME280;27986;42.700;24.178;2022-11-15T18:44:22;93851.78;;;5.11;100.00
42335;BME280;27986;42.700;24.178;2022-11-15T18:46:47;93864.72;;;5.34;100.00
42335;BME280;27986;42.700;24.178;2022-11-15T18:49:14;93867.94;;;5.01;100.00
42335;BME280;27986;42.700;24.178;2022-11-15T18:51:41;93860.75;;;5.20;100.00
42335;BME280;27986;42.700;24.178;2022-11-15T18:54:09;93865.66;;;5.25;100.00
42335;BME280;27986;42.700;24.178;2022-11-15T18:56:35;93861.41;;;5.35;100.00
42335;BME280;27986;42.700;24.178;2022-11-15T18:59:01;93857.94;;;5.41;100.00
42335;BME280;27986;42.700;24.178;2022-11-15T19:01:31;93856.53;;;5.56;100.00
42335;BME280;27986;42.700;24.178;2022-11-15T19:03:58;93842.78;;;5.53;100.00
42335;BME280;27986;42.700;24.178;2022-11-15T19:06:27;93850.22;;;5.61;100.00
42335;BME280;27986;42.700;24.178;2022-11-15T19:08:57;93829.03;;;5.23;100.00
42335;BME280;27986;42.700;24.178;2022-11-15T19:11:28;93853.09;;;5.41;100.00
42335;BME280;27986;42.700;24.178;2022-11-15T19:13:57;93834.72;;;5.34;100.00
42335;BME280;27986;42.700;24.178;2022-11-15T19:16:34;93845.97;;;5.40;100.00
42335;BME280;27986;42.700;24.178;2022-11-15T19:19:03;93836.53;;;5.37;100.00
42335;BME280;27986;42.700;24.178;2022-11-15T19:21:29;93844.88;;;5.32;100.00
42335;BME280;27986;42.700;24.178;2022-11-15T19:23:56;93838.13;;;5.18;100.00
42335;BME280;27986;42.700;24.178;2022-11-15T19:26:22;93820.66;;;5.23;100.00
42335;BME280;27986;42.700;24.178;2022-11-15T19:28:56;93829.84;;;5.29;100.00
42335;BME280;27986;42.700;24.178;2022-11-15T19:31:23;93825.69;;;5.19;100.00
42335;BME280;27986;42.700;24.178;2022-11-15T19:33:49;93825.75;;;4.99;100.00
42335;BME280;27986;42.700;24.178;2022-11-15T19:36:24;93821.97;;;5.02;100.00
42335;BME280;27986;42.700;24.178;2022-11-15T19:38:54;93830.94;;;5.12;99.07
42335;BME280;27986;42.700;24.178;2022-11-15T19:41:21;93827.38;;;4.85;98.77
42335;BME280;27986;42.700;24.178;2022-11-15T19:43:48;93839.13;;;4.69;99.47
42335;BME280;27986;42.700;24.178;2022-11-15T19:46:15;93821.41;;;4.31;100.00
42335;BME280;27986;42.700;24.178;2022-11-15T19:48:41;93838.78;;;4.20;100.00
42335;BME280;27986;42.700;24.178;2022-11-15T19:51:12;93832.06;;;4.12;100.00
42335;BME280;27986;42.700;24.178;2022-11-15T19:53:39;93808.94;;;3.91;100.00
42335;BME280;27986;42.700;24.178;2022-11-15T19:56:11;93828.28;;;4.15;100.00
42335;BME280;27986;42.700;24.178;2022-11-15T19:58:37;93833.72;;;4.04;100.00
42335;BME280;27986;42.700;24.178;2022-11-15T20:01:13;93820.59;;;4.10;100.00
42335;BME280;27986;42.700;24.178;2022-11-15T20:03:40;93833.53;;;4.08;100.00
42335;BME280;27986;42.700;24.178;2022-11-15T20:06:10;93824.47;;;4.13;100.00
42335;BME280;27986;42.700;24.178;2022-11-15T20:08:37;93835.72;;;4.39;100.00
42335;BME280;27986;42.700;24.178;2022-11-15T20:11:03;93838.16;;;4.51;100.00
42335;BME280;27986;42.700;24.178;2022-11-15T20:13:29;93806.13;;;4.47;100.00
42335;BME280;27986;42.700;24.178;2022-11-15T20:15:56;93826.69;;;4.70;100.00
42335;BME280;27986;42.700;24.178;2022-11-15T20:18:23;93819.63;;;4.74;100.00
42335;BME280;27986;42.700;24.178;2022-11-15T20:20:49;93817.06;;;4.71;100.00
42335;BME280;27986;42.700;24.178;2022-11-15T20:23:15;93812.88;;;4.81;100.00
42335;BME280;27986;42.700;24.178;2022-11-15T20:25:45;93803.09;;;4.71;100.00
42335;BME280;27986;42.700;24.178;2022-11-15T20:28:16;93803.31;;;4.67;100.00
42335;BME280;27986;42.700;24.178;2022-11-15T20:30:45;93813.41;;;4.85;100.00
42335;BME280;27986;42.700;24.178;2022-11-15T20:33:12;93800.59;;;4.73;100.00
42335;BME280;27986;42.700;24.178;2022-11-15T20:35:38;93817.25;;;4.88;100.00
42335;BME280;27986;42.700;24.178;2022-11-15T20:38:05;93792.47;;;4.75;100.00
42335;BME280;27986;42.700;24.178;2022-11-15T20:40:31;93796.25;;;4.51;99.93
42335;BME280;27986;42.700;24.178;2022-11-15T20:42:56;93808.75;;;4.15;100.00
42335;BME280;27986;42.700;24.178;2022-11-15T20:45:22;93784.28;;;4.05;100.00
42335;BME280;27986;42.700;24.178;2022-11-15T20:47:47;93797.69;;;4.21;100.00
42335;BME280;27986;42.700;24.178;2022-11-15T20:50:13;93801.09;;;4.31;100.00
42335;BME280;27986;42.700;24.178;2022-11-15T20:52:38;93794.59;;;3.99;100.00
42335;BME280;27986;42.700;24.178;2022-11-15T20:55:04;93775.88;;;3.84;100.00
42335;BME280;27986;42.700;24.178;2022-11-15T20:57:30;93757.69;;;3.89;100.00
42335;BME280;27986;42.700;24.178;2022-11-15T20:59:55;93781.03;;;3.71;100.00
42335;BME280;27986;42.700;24.178;2022-11-15T21:02:21;93782.06;;;3.38;100.00
42335;BME280;27986;42.700;24.178;2022-11-15T21:04:46;93790.72;;;3.11;100.00
42335;BME280;27986;42.700;24.178;2022-11-15T21:07:12;93775.06;;;3.14;100.00
42335;BME280;27986;42.700;24.178;2022-11-15T21:09:37;93793.03;;;3.13;100.00
42335;BME280;27986;42.700;24.178;2022-11-15T21:12:23;93777.38;;;3.30;100.00
42335;BME280;27986;42.700;24.178;2022-11-15T21:14:48;93763.88;;;3.43;100.00
42335;BME280;27986;42.700;24.178;2022-11-15T21:17:16;93774.72;;;3.56;99.24